Time;durP1;ratioP1;P1;durP2;ratioP2;P2;SDS_P1;SDS_P2;PMS_P1;PMS_P2;Temp;Humidity;BMP_temperature;BMP_pressure;BME280_temperature;BME280_humidity;BME280_pressure;Samples;Min_cycle;Max_cycle;Signal;HPM_P1;HPM_P2
2022/07/18 00:02:19;;;;;;;5.78;4.18;;;;;;;22.68;100.00;151740.25;5092516;28;20185;-65
2022/07/18 00:04:46;;;;;;;10.10;4.45;;;;;;;22.81;100.00;151772.19;5092819;28;20184;-65
2022/07/18 00:07:14;;;;;;;4.05;3.65;;;;;;;22.48;100.00;151689.25;5092977;28;20192;-64
2022/07/18 00:09:42;;;;;;;3.95;3.60;;;;;;;22.73;100.00;151754.34;5092804;28;20196;-64
2022/07/18 00:12:11;;;;;;;4.40;3.65;;;;;;;22.75;100.00;151758.13;5092659;28;20267;-65
2022/07/18 00:14:39;;;;;;;3.60;3.40;;;;;;;22.75;100.00;151759.41;5092604;28;20271;-64
2022/07/18 00:17:06;;;;;;;5.22;2.80;;;;;;;22.77;100.00;151763.25;5092560;28;20184;-65
2022/07/18 00:19:33;;;;;;;3.47;2.95;;;;;;;22.79;100.00;151768.34;5092535;28;20212;-65
2022/07/18 00:22:00;;;;;;;2.90;2.63;;;;;;;22.58;100.00;151716.00;5092769;28;20204;-65
2022/07/18 00:24:29;;;;;;;3.90;2.65;;;;;;;22.73;100.00;151754.34;5092778;28;20212;-65
2022/07/18 00:26:56;;;;;;;2.58;2.47;;;;;;;22.74;100.00;151756.84;5092859;28;20199;-65
2022/07/18 00:29:23;;;;;;;2.47;2.38;;;;;;;22.83;100.00;151777.31;5092763;28;20663;-65
2022/07/18 00:31:49;;;;;;;2.63;2.40;;;;;;;22.64;100.00;151730.06;5092872;28;20516;-64
2022/07/18 00:34:16;;;;;;;3.78;1.42;;;;;;;22.74;100.00;151755.63;5092643;28;20693;-65
2022/07/18 00:36:43;;;;;;;4.30;1.85;;;;;;;22.70;100.00;151745.41;5092570;28;20598;-65
2022/07/18 00:39:10;;;;;;;2.65;2.53;;;;;;;22.67;100.00;151737.69;5092746;28;20184;-64
2022/07/18 00:41:39;;;;;;;3.15;1.65;;;;;;;22.66;100.00;151736.41;5092113;28;20200;-64
2022/07/18 00:44:06;;;;;;;2.45;2.05;;;;;;;22.65;100.00;151732.59;5092452;28;20602;-64
2022/07/18 00:46:33;;;;;;;4.03;1.50;;;;;;;22.72;100.00;151751.78;5092284;28;20192;-64
2022/07/18 00:49:00;;;;;;;4.15;1.58;;;;;;;22.60;100.00;151721.13;5092289;28;20192;-65
2022/07/18 00:51:27;;;;;;;2.50;1.50;;;;;;;22.64;100.00;151731.34;5092025;28;20180;-64
2022/07/18 00:53:55;;;;;;;2.97;1.48;;;;;;;22.69;100.00;151744.13;5092343;28;20279;-64
2022/07/18 00:56:23;;;;;;;3.72;1.40;;;;;;;22.63;100.00;151727.50;5092676;28;20207;-64
2022/07/18 00:58:51;;;;;;;2.95;1.65;;;;;;;22.69;100.00;151742.84;5092326;28;20492;-63
2022/07/18 01:04:02;;;;;;;1.60;1.50;;;;;;;22.66;100.00;151735.16;5092062;28;20205;-65
2022/07/18 01:06:29;;;;;;;2.00;1.70;;;;;;;22.56;100.00;151709.66;5091711;28;20202;-65
2022/07/18 01:08:58;;;;;;;1.38;1.27;;;;;;;22.56;100.00;151709.66;5092140;28;20191;-64
2022/07/18 01:11:25;;;;;;;4.43;1.27;;;;;;;22.26;100.00;151635.69;5091956;28;20277;-65
2022/07/18 01:13:54;;;;;;;4.10;1.30;;;;;;;22.48;100.00;151689.25;5091679;28;20180;-65
2022/07/18 01:16:22;;;;;;;2.85;1.30;;;;;;;22.39;100.00;151666.28;5092071;28;20184;-64
2022/07/18 01:18:50;;;;;;;4.47;1.67;;;;;;;22.35;100.00;151657.38;5091692;28;20189;-64
2022/07/18 01:21:18;;;;;;;1.20;1.10;;;;;;;22.25;100.00;151633.13;5091999;28;20208;-63
2022/07/18 01:23:45;;;;;;;3.20;1.20;;;;;;;22.21;100.00;151621.66;5091970;28;20619;-65
2022/07/18 01:26:14;;;;;;;1.58;1.48;;;;;;;22.35;100.00;151656.09;5092196;28;20207;-65
2022/07/18 01:28:41;;;;;;;1.55;1.45;;;;;;;22.12;100.00;151598.69;5091678;28;20275;-65
2022/07/18 01:31:08;;;;;;;4.55;1.33;;;;;;;22.26;100.00;151635.69;5092109;28;20207;-64
2022/07/18 01:33:35;;;;;;;4.47;1.20;;;;;;;22.18;100.00;151614.00;5091609;28;20279;-64
2022/07/18 01:36:04;;;;;;;2.22;1.20;;;;;;;22.09;100.00;151592.34;5091618;28;20187;-64
2022/07/18 01:38:34;;;;;;;2.92;1.60;;;;;;;22.01;100.00;151570.66;5090435;28;20180;-64
2022/07/18 01:41:01;;;;;;;2.78;1.30;;;;;;;22.12;100.00;151598.69;5090062;28;20277;-65
2022/07/18 01:43:28;;;;;;;1.35;1.23;;;;;;;21.94;100.00;151554.06;5090150;28;20187;-64
2022/07/18 01:45:56;;;;;;;2.25;1.20;;;;;;;22.15;100.00;151607.59;5090190;28;20233;-64
2022/07/18 01:48:23;;;;;;;2.90;1.25;;;;;;;22.09;100.00;151592.34;5090333;28;20297;-65
2022/07/18 01:50:51;;;;;;;2.85;1.52;;;;;;;21.98;100.00;151564.25;5084839;28;20203;-64
2022/07/18 01:53:18;;;;;;;1.40;1.30;;;;;;;22.08;100.00;151589.78;5090031;28;20369;-64
2022/07/18 01:55:46;;;;;;;1.30;1.20;;;;;;;22.02;100.00;151573.22;5089850;28;20196;-64
2022/07/18 01:58:13;;;;;;;5.45;1.73;;;;;;;21.97;100.00;151560.47;5090337;28;20718;-64
2022/07/18 02:00:40;;;;;;;4.63;1.17;;;;;;;21.99;100.00;151566.81;5090483;28;20701;-65
2022/07/18 02:03:07;;;;;;;8.15;1.88;;;;;;;22.09;100.00;151591.06;5089842;28;20188;-64
2022/07/18 02:05:34;;;;;;;4.75;1.63;;;;;;;22.12;100.00;151599.97;5090149;28;20196;-63
2022/07/18 02:08:00;;;;;;;1.40;1.30;;;;;;;22.02;100.00;151574.50;5089976;28;20184;-63
2022/07/18 02:10:27;;;;;;;5.57;1.45;;;;;;;22.06;100.00;151584.69;5089868;28;20192;-64
2022/07/18 02:12:56;;;;;;;6.68;1.27;;;;;;;22.13;100.00;151602.53;5090254;28;20642;-64
2022/07/18 02:15:23;;;;;;;1.67;1.58;;;;;;;22.15;100.00;151607.59;5089908;28;20185;-64
2022/07/18 02:17:50;;;;;;;3.42;1.27;;;;;;;22.14;100.00;151605.09;5087553;28;20185;-64
2022/07/18 02:20:17;;;;;;;3.67;1.63;;;;;;;22.09;100.00;151591.06;5090793;28;20257;-64
2022/07/18 02:22:44;;;;;;;5.15;1.63;;;;;;;22.08;100.00;151589.78;5091053;28;20184;-65
2022/07/18 02:25:12;;;;;;;3.05;1.70;;;;;;;22.04;100.00;151578.28;5091103;28;20184;-63
2022/07/18 02:27:40;;;;;;;2.83;1.60;;;;;;;21.83;100.00;151527.25;5094807;28;20183;-63
2022/07/18 02:30:10;;;;;;;2.58;1.70;;;;;;;21.95;100.00;151555.34;5094904;28;20549;-64
2022/07/18 02:32:37;;;;;;;7.07;1.52;;;;;;;21.96;100.00;151559.19;5094723;28;20199;-65
2022/07/18 02:35:06;;;;;;;2.35;1.60;;;;;;;21.84;100.00;151529.81;5094667;28;20188;-65
2022/07/18 02:37:32;;;;;;;8.73;2.05;;;;;;;21.96;100.00;151559.19;5094602;28;20198;-65
2022/07/18 02:39:59;;;;;;;3.30;1.70;;;;;;;21.85;100.00;151532.34;5094781;28;20678;-65
2022/07/18 02:42:27;;;;;;;3.55;1.70;;;;;;;21.78;100.00;151513.22;5094628;28;20196;-65
2022/07/18 02:44:54;;;;;;;2.75;1.70;;;;;;;21.61;100.00;151469.88;5094760;28;20184;-64
2022/07/18 02:47:22;;;;;;;1.40;1.40;;;;;;;21.60;100.00;151467.38;5094836;28;20210;-64
2022/07/18 02:49:49;;;;;;;2.03;1.40;;;;;;;21.35;100.00;151406.16;5094543;28;20623;-64
2022/07/18 02:52:16;;;;;;;1.53;1.30;;;;;;;21.38;100.00;151413.84;5094214;28;20199;-64
2022/07/18 02:54:43;;;;;;;1.30;1.30;;;;;;;21.33;100.00;151401.09;5094602;28;20187;-64
2022/07/18 02:57:10;;;;;;;3.13;1.50;;;;;;;21.42;100.00;151424.03;5094229;28;20215;-64
2022/07/18 02:59:37;;;;;;;3.00;1.50;;;;;;;21.40;100.00;151418.94;5094068;28;20208;-64
2022/07/18 03:02:04;;;;;;;1.48;1.35;;;;;;;21.21;100.00;151369.25;5093979;28;20287;-65
2022/07/18 03:04:33;;;;;;;3.30;1.60;;;;;;;21.36;100.00;151407.44;5094299;28;20274;-64
2022/07/18 03:07:00;;;;;;;1.50;1.40;;;;;;;21.43;100.00;151425.28;5093881;28;20184;-64
2022/07/18 03:09:27;;;;;;;3.70;1.38;;;;;;;21.48;100.00;151438.03;5094180;28;20180;-64
2022/07/18 03:11:55;;;;;;;4.17;1.87;;;;;;;21.41;100.00;151420.22;5093821;28;20228;-65
2022/07/18 03:14:22;;;;;;;3.60;1.70;;;;;;;21.38;100.00;151413.84;5093862;28;20188;-64
2022/07/18 03:16:49;;;;;;;1.95;1.35;;;;;;;21.29;100.00;151389.63;5093722;28;20211;-64
2022/07/18 03:19:16;;;;;;;4.63;1.63;;;;;;;21.46;100.00;151432.97;5094139;28;20187;-65
2022/07/18 03:21:44;;;;;;;1.53;1.43;;;;;;;21.49;100.00;151440.59;5093661;28;20210;-65
2022/07/18 03:24:13;;;;;;;1.80;1.70;;;;;;;21.64;100.00;151477.56;5093886;28;20211;-65
2022/07/18 03:26:40;;;;;;;2.40;1.40;;;;;;;21.66;100.00;151482.66;5093791;28;20249;-65
2022/07/18 03:29:07;;;;;;;1.95;1.40;;;;;;;22.07;100.00;151587.22;5093543;28;20271;-65
2022/07/18 03:31:34;;;;;;;4.32;1.60;;;;;;;22.03;100.00;151575.75;5093558;28;20199;-63
2022/07/18 03:34:01;;;;;;;4.85;1.30;;;;;;;22.14;100.00;151605.09;5094035;28;20191;-64
2022/07/18 03:36:28;;;;;;;3.38;1.45;;;;;;;21.89;100.00;151541.31;5093329;28;20187;-64
2022/07/18 03:38:56;;;;;;;1.55;1.20;;;;;;;21.65;100.00;151480.09;5093558;28;20544;-65
2022/07/18 03:41:23;;;;;;;2.22;1.15;;;;;;;21.56;100.00;151457.13;5093074;28;20215;-64
2022/07/18 03:43:50;;;;;;;1.23;1.13;;;;;;;21.54;100.00;151452.06;5093545;28;20259;-65
2022/07/18 03:46:17;;;;;;;1.75;1.35;;;;;;;21.41;100.00;151420.22;5093612;28;20184;-63
2022/07/18 03:48:44;;;;;;;1.67;1.60;;;;;;;21.37;100.00;151410.00;5093411;28;20198;-64
2022/07/18 03:51:11;;;;;;;1.50;1.40;;;;;;;21.35;100.00;151404.91;5093599;28;20188;-64
2022/07/18 03:53:38;;;;;;;3.33;1.73;;;;;;;21.34;100.00;151402.38;5093133;28;20188;-64
2022/07/18 03:56:06;;;;;;;3.00;1.50;;;;;;;21.43;100.00;151426.56;5093337;28;20524;-64
2022/07/18 03:58:33;;;;;;;2.05;1.17;;;;;;;21.50;100.00;151443.16;5093295;28;20195;-64
2022/07/18 04:01:00;;;;;;;2.47;1.10;;;;;;;21.60;100.00;151467.38;5092822;28;20203;-64
2022/07/18 04:03:30;;;;;;;2.17;1.40;;;;;;;21.86;100.00;151533.63;5093152;28;20263;-65
2022/07/18 04:05:57;;;;;;;1.98;1.33;;;;;;;22.13;100.00;151602.53;5093275;28;20629;-64
2022/07/18 04:08:24;;;;;;;4.70;1.70;;;;;;;22.18;100.00;151614.00;5093137;28;20642;-64
2022/07/18 04:10:51;;;;;;;1.60;1.50;;;;;;;21.99;100.00;151566.81;5092891;28;20235;-65
2022/07/18 04:13:19;;;;;;;5.05;1.58;;;;;;;21.86;100.00;151533.63;5092982;28;20192;-65
2022/07/18 04:15:46;;;;;;;1.50;1.40;;;;;;;21.95;100.00;151556.63;5093092;28;20288;-64
2022/07/18 04:18:13;;;;;;;1.52;1.42;;;;;;;21.84;100.00;151528.53;5092937;28;20188;-64
2022/07/18 04:20:40;;;;;;;1.98;1.30;;;;;;;21.63;100.00;151476.28;5092496;28;20208;-64
2022/07/18 04:23:09;;;;;;;2.20;1.42;;;;;;;21.79;100.00;151515.78;5092848;28;20268;-63
2022/07/18 04:25:38;;;;;;;6.40;1.55;;;;;;;21.92;100.00;151549.00;5092811;28;20279;-62
2022/07/18 04:28:06;;;;;;;2.20;1.90;;;;;;;22.02;100.00;151573.22;5092756;28;20291;-63
2022/07/18 04:30:35;;;;;;;3.33;1.23;;;;;;;22.19;100.00;151617.81;5092470;28;20188;-64
2022/07/18 04:33:03;;;;;;;2.80;1.70;;;;;;;22.14;100.00;151603.81;5092293;28;20195;-63
2022/07/18 04:35:30;;;;;;;2.75;1.23;;;;;;;22.24;100.00;151630.56;5092560;28;20613;-64
2022/07/18 04:37:58;;;;;;;1.10;1.10;;;;;;;22.41;100.00;151671.34;5092550;28;20199;-63
2022/07/18 04:40:25;;;;;;;2.22;1.30;;;;;;;22.41;100.00;151672.63;5092312;28;20194;-63
2022/07/18 04:42:52;;;;;;;4.40;1.40;;;;;;;22.17;100.00;151612.72;5092729;28;20188;-63
2022/07/18 04:45:21;;;;;;;3.42;1.20;;;;;;;22.16;100.00;151610.16;5092688;28;20653;-64
2022/07/18 04:47:51;;;;;;;1.90;1.60;;;;;;;22.21;100.00;151622.94;5090664;28;20210;-63
2022/07/18 04:50:18;;;;;;;13.00;1.77;;;;;;;22.13;100.00;151601.25;5091539;28;20188;-63
2022/07/18 04:52:46;;;;;;;3.80;1.63;;;;;;;21.92;100.00;151549.00;5092006;28;20188;-63
2022/07/18 04:55:16;;;;;;;12.02;1.77;;;;;;;21.98;100.00;151564.25;5092545;28;20556;-63
2022/07/18 04:57:43;;;;;;;1.50;1.40;;;;;;;22.21;100.00;151622.94;5090467;28;20192;-61
2022/07/18 05:00:13;;;;;;;3.15;1.58;;;;;;;22.34;100.00;151654.81;5092964;28;20619;-64
2022/07/18 05:02:41;;;;;;;2.80;1.20;;;;;;;22.33;100.00;151652.25;5092905;28;20587;-63
2022/07/18 05:05:11;;;;;;;3.22;1.17;;;;;;;22.16;100.00;151610.16;5092783;28;20632;-63
2022/07/18 05:07:39;;;;;;;2.58;1.50;;;;;;;22.21;100.00;151622.94;5092195;28;20633;-63
2022/07/18 05:10:30;;;;;;;3.92;1.52;;;;;;;22.32;100.00;151649.69;5092439;28;20191;-63
2022/07/18 05:12:57;;;;;;;1.83;1.27;;;;;;;22.32;100.00;151650.97;5092819;28;20275;-63
2022/07/18 05:15:25;;;;;;;2.78;1.42;;;;;;;22.50;100.00;151694.31;5091225;28;20218;-63
2022/07/18 05:17:53;;;;;;;1.00;1.00;;;;;;;22.55;100.00;151707.09;5092287;28;20183;-63
2022/07/18 05:20:24;;;;;;;1.38;1.27;;;;;;;22.60;100.00;151721.13;5089628;28;20290;-62
2022/07/18 05:22:52;;;;;;;3.47;1.38;;;;;;;22.69;100.00;151744.13;5092499;28;20208;-62
2022/07/18 05:25:21;;;;;;;1.40;1.30;;;;;;;22.83;100.00;151777.31;5093038;28;20241;-62
2022/07/18 05:27:48;;;;;;;4.60;1.63;;;;;;;23.03;100.00;151828.31;5092292;28;20188;-62
2022/07/18 05:30:15;;;;;;;2.97;0.95;;;;;;;23.11;100.00;151850.00;5092207;28;20212;-64
2022/07/18 05:32:43;;;;;;;1.40;1.30;;;;;;;22.90;100.00;151795.16;5092792;28;20603;-63
2022/07/18 05:35:12;;;;;;;1.40;1.30;;;;;;;22.77;100.00;151763.25;5092948;28;20607;-63
2022/07/18 05:37:41;;;;;;;3.00;0.93;;;;;;;22.75;100.00;151758.13;5092097;28;20275;-62
2022/07/18 05:40:10;;;;;;;1.42;1.00;;;;;;;22.74;100.00;151755.63;5092045;28;20618;-64
2022/07/18 05:42:38;;;;;;;3.83;1.38;;;;;;;22.76;100.00;151760.69;5091871;28;20204;-63
2022/07/18 05:45:06;;;;;;;5.53;1.40;;;;;;;22.66;100.00;151735.16;5091608;28;20523;-63
2022/07/18 05:47:33;;;;;;;3.60;1.48;;;;;;;22.98;100.00;151816.84;5087780;28;20198;-64
2022/07/18 05:50:00;;;;;;;4.78;1.20;;;;;;;23.01;100.00;151823.19;5090790;28;20192;-63
2022/07/18 05:52:27;;;;;;;1.65;1.23;;;;;;;23.27;100.00;151889.56;5092674;28;20184;-63
2022/07/18 05:54:55;;;;;;;3.05;1.15;;;;;;;23.36;100.00;151911.25;5092136;28;20188;-63
2022/07/18 05:57:22;;;;;;;2.95;1.20;;;;;;;23.48;100.00;151941.91;5080018;28;20291;-63
2022/07/18 05:59:49;;;;;;;1.23;0.90;;;;;;;23.23;100.00;151879.34;5071898;28;20188;-64
2022/07/18 06:02:16;;;;;;;2.35;0.80;;;;;;;22.99;100.00;151819.41;5075116;28;20219;-62
2022/07/18 06:04:45;;;;;;;5.22;0.95;;;;;;;22.95;100.00;151809.19;5076035;28;20210;-63
2022/07/18 06:07:12;;;;;;;0.85;0.70;;;;;;;22.86;100.00;151786.22;5083290;28;20211;-63
2022/07/18 06:09:39;;;;;;;3.78;1.30;;;;;;;23.04;100.00;151832.13;5095161;28;20196;-63
2022/07/18 06:12:09;;;;;;;1.55;1.30;;;;;;;23.16;100.00;151862.78;5094844;28;20566;-63
2022/07/18 06:14:36;;;;;;;3.22;1.00;;;;;;;23.31;100.00;151899.75;5095205;28;20715;-64
2022/07/18 06:17:03;;;;;;;2.88;1.15;;;;;;;23.61;100.00;151975.09;5095032;28;20180;-64
2022/07/18 06:19:30;;;;;;;0.77;0.75;;;;;;;23.63;100.00;151980.22;5093796;28;20184;-63
2022/07/18 06:21:57;;;;;;;2.90;0.63;;;;;;;23.86;100.00;152038.91;5095086;28;20212;-63
2022/07/18 06:24:26;;;;;;;6.07;1.20;;;;;;;24.16;100.00;152114.28;5094974;28;20184;-63
2022/07/18 06:26:53;;;;;;;1.05;0.80;;;;;;;24.29;99.06;152147.47;5094286;28;20646;-64
2022/07/18 06:29:21;;;;;;;0.80;0.80;;;;;;;24.40;99.50;152175.56;5095283;28;20180;-64
2022/07/18 06:31:48;;;;;;;1.95;1.00;;;;;;;24.29;98.37;152146.19;5076156;28;20195;-63
2022/07/18 06:34:15;;;;;;;1.42;0.70;;;;;;;24.08;96.77;152093.81;5091518;28;20202;-63
2022/07/18 06:36:42;;;;;;;2.75;0.90;;;;;;;24.29;97.93;152146.19;5091463;28;20675;-63
2022/07/18 06:39:10;;;;;;;2.88;0.80;;;;;;;24.57;95.68;152217.69;5075053;28;20185;-63
2022/07/18 06:41:39;;;;;;;1.70;0.98;;;;;;;24.45;98.80;152187.06;5079429;28;20204;-63
2022/07/18 06:44:07;;;;;;;4.72;0.93;;;;;;;24.83;95.20;152284.13;5094136;28;20635;-64
2022/07/18 06:46:36;;;;;;;2.45;0.80;;;;;;;24.59;95.79;152222.81;5088501;28;20192;-64
2022/07/18 06:49:04;;;;;;;4.82;1.23;;;;;;;24.65;94.53;152238.16;5090537;28;20264;-63
2022/07/18 06:51:32;;;;;;;1.50;0.70;;;;;;;24.30;98.11;152150.06;5094495;28;20180;-63
2022/07/18 06:53:58;;;;;;;0.70;0.68;;;;;;;24.39;95.38;152171.75;5095352;28;20234;-64
2022/07/18 06:56:26;;;;;;;1.58;0.70;;;;;;;24.11;96.15;152102.75;5094069;28;20631;-63
2022/07/18 06:58:53;;;;;;;2.65;0.70;;;;;;;24.31;98.38;152152.63;5094351;28;20191;-64
2022/07/18 07:01:24;;;;;;;5.15;0.85;;;;;;;25.05;88.27;152339.09;5094089;28;20184;-64
2022/07/18 07:03:52;;;;;;;1.95;1.00;;;;;;;25.43;87.11;152434.91;5095154;28;20703;-64
2022/07/18 07:06:20;;;;;;;2.92;0.60;;;;;;;25.37;86.19;152419.63;5093970;28;20231;-65
2022/07/18 07:08:47;;;;;;;8.77;0.77;;;;;;;26.01;81.73;152580.69;5074453;28;20184;-65
2022/07/18 07:11:14;;;;;;;1.75;0.70;;;;;;;26.03;81.85;152587.06;5082721;28;20224;-65
2022/07/18 07:13:41;;;;;;;0.50;0.50;;;;;;;25.90;80.35;152555.09;5094929;28;20276;-64
2022/07/18 07:16:08;;;;;;;1.38;0.85;;;;;;;25.60;82.09;152478.41;5094496;28;20194;-63
2022/07/18 07:18:35;;;;;;;1.42;1.23;;;;;;;25.86;82.14;152544.88;5095534;28;20189;-66
2022/07/18 07:21:04;;;;;;;2.58;0.88;;;;;;;25.96;84.05;152567.91;5094935;28;20275;-64
2022/07/18 07:23:31;;;;;;;3.70;0.98;;;;;;;26.07;81.76;152597.28;5094854;28;20215;-63
2022/07/18 07:25:58;;;;;;;2.10;0.85;;;;;;;26.11;79.98;152606.22;5093936;28;20186;-63
2022/07/18 07:28:24;;;;;;;0.70;0.70;;;;;;;25.43;84.59;152434.91;5094031;28;20294;-64
2022/07/18 07:30:51;;;;;;;1.52;0.70;;;;;;;25.87;83.84;152547.44;5093598;28;20187;-61
2022/07/18 07:33:18;;;;;;;3.05;0.90;;;;;;;26.19;81.68;152626.69;5094583;28;20650;-65
2022/07/18 07:35:45;;;;;;;3.95;1.02;;;;;;;25.64;85.15;152487.34;5092710;28;20184;-64
2022/07/18 07:38:18;;;;;;;0.75;0.63;;;;;;;25.84;83.29;152539.75;5093780;28;20215;-65
2022/07/18 07:40:45;;;;;;;5.65;1.08;;;;;;;25.90;85.26;152555.09;5092825;28;20180;-66
2022/07/18 07:43:13;;;;;;;4.38;0.70;;;;;;;25.09;85.56;152349.31;5093258;28;20207;-63
2022/07/18 07:45:40;;;;;;;1.13;0.60;;;;;;;24.70;89.43;152250.91;5093473;28;20180;-64
2022/07/18 07:48:08;;;;;;;0.70;0.60;;;;;;;24.60;93.73;152225.38;5093839;28;20629;-63
2022/07/18 07:50:35;;;;;;;0.60;0.60;;;;;;;24.58;91.18;152221.53;5093696;28;20180;-64
2022/07/18 07:53:02;;;;;;;1.02;0.75;;;;;;;24.77;88.68;152267.53;5092988;28;20623;-64
2022/07/18 07:55:32;;;;;;;1.95;0.68;;;;;;;24.83;89.12;152284.13;5093566;28;20266;-63
2022/07/18 07:58:00;;;;;;;0.60;0.60;;;;;;;24.66;88.05;152240.69;5093443;28;20195;-63
2022/07/18 08:00:27;;;;;;;1.00;0.40;;;;;;;24.61;82.76;152227.97;5092965;28;20240;-62
2022/07/18 08:02:56;;;;;;;5.63;1.42;;;;;;;24.87;85.13;152294.38;5091543;28;20239;-63
2022/07/18 08:05:24;;;;;;;2.38;0.45;;;;;;;25.05;82.70;152337.81;5073340;28;20579;-63
2022/07/18 08:07:51;;;;;;;0.50;0.50;;;;;;;24.68;83.49;152244.53;5089878;28;20386;-62
2022/07/18 08:10:19;;;;;;;1.60;0.50;;;;;;;24.44;88.99;152184.53;5087823;28;20230;-60
2022/07/18 08:12:47;;;;;;;4.53;0.75;;;;;;;24.32;88.63;152153.84;5093161;28;20192;-59
2022/07/18 08:15:14;;;;;;;1.45;0.60;;;;;;;24.55;87.25;152213.91;5091325;28;20283;-60
2022/07/18 08:17:41;;;;;;;1.20;0.50;;;;;;;24.67;87.08;152243.25;5093266;28;20280;-60
2022/07/18 08:20:11;;;;;;;2.90;0.40;;;;;;;25.09;83.44;152348.03;5092503;28;20184;-59
2022/07/18 08:22:56;;;;;;;2.20;0.60;;;;;;;25.08;82.04;152346.75;5092358;28;20204;-59
2022/07/18 08:25:24;;;;;;;0.75;0.63;;;;;;;24.59;83.88;152222.81;5092179;28;20282;-60
2022/07/18 08:27:52;;;;;;;2.25;0.57;;;;;;;24.80;83.54;152276.47;5093054;28;20220;-60
2022/07/18 08:30:20;;;;;;;1.20;0.50;;;;;;;24.89;82.08;152298.22;5080127;28;20203;-60
2022/07/18 08:32:50;;;;;;;0.60;0.60;;;;;;;25.32;83.73;152406.81;5079600;28;20184;-59
2022/07/18 08:35:17;;;;;;;1.95;0.70;;;;;;;25.54;83.74;152463.09;5084213;28;20200;-61
2022/07/18 08:37:46;;;;;;;2.53;0.70;;;;;;;25.14;82.20;152360.81;5088502;28;20283;-60
2022/07/18 08:40:14;;;;;;;3.00;0.75;;;;;;;25.23;81.01;152385.09;5082277;28;20275;-60
2022/07/18 08:42:41;;;;;;;0.70;0.60;;;;;;;24.70;84.57;152250.91;5092258;28;20307;-59
2022/07/18 08:45:10;;;;;;;1.73;0.70;;;;;;;24.43;86.90;152181.97;5092503;28;20742;-59
2022/07/18 08:47:37;;;;;;;2.92;0.63;;;;;;;24.77;86.92;152267.53;5092035;28;20187;-60
2022/07/18 08:50:05;;;;;;;3.10;0.60;;;;;;;24.66;85.96;152239.41;5092340;28;20697;-60
2022/07/18 08:52:35;;;;;;;1.73;0.68;;;;;;;24.61;89.32;152226.66;5089381;28;20194;-59
2022/07/18 08:55:03;;;;;;;0.73;0.70;;;;;;;24.96;88.04;152316.09;5091370;28;20198;-60
2022/07/18 08:57:30;;;;;;;4.65;0.90;;;;;;;25.32;85.46;152408.13;5092994;28;20257;-60
2022/07/18 08:59:57;;;;;;;0.60;0.60;;;;;;;25.29;82.80;152399.19;5092647;28;20234;-59
2022/07/18 09:02:27;;;;;;;1.35;1.08;;;;;;;25.24;83.55;152386.38;5091707;28;20571;-59
2022/07/18 09:04:54;;;;;;;2.50;0.80;;;;;;;25.42;81.58;152433.63;5092120;28;20279;-59
2022/07/18 09:07:27;;;;;;;0.73;0.73;;;;;;;25.68;82.16;152498.84;5092235;28;20221;-60
2022/07/18 09:09:57;;;;;;;1.27;0.93;;;;;;;25.48;80.52;152447.72;5090658;28;20566;-60
2022/07/18 09:12:25;;;;;;;2.10;0.70;;;;;;;25.59;81.94;152474.63;5091509;28;20228;-60
2022/07/18 09:14:53;;;;;;;4.18;0.95;;;;;;;25.67;81.21;152495.06;5092375;28;20192;-60
2022/07/18 09:17:22;;;;;;;0.80;0.80;;;;;;;25.79;76.15;152527.00;5092052;28;20247;-59
2022/07/18 09:20:01;;;;;;;0.82;0.60;;;;;;;26.04;77.75;152588.34;5092259;28;20216;-60
2022/07/18 09:22:30;;;;;;;0.70;0.60;;;;;;;25.58;80.58;152472.03;5092045;28;20226;-60
2022/07/18 09:25:03;;;;;;;1.70;0.77;;;;;;;26.00;79.22;152578.13;5091719;28;20188;-59
2022/07/18 09:27:33;;;;;;;0.73;0.73;;;;;;;26.20;76.86;152629.28;5092694;28;20562;-59
2022/07/18 09:30:24;;;;;;;0.60;0.60;;;;;;;25.89;77.92;152552.53;5088578;28;20196;-61
2022/07/18 09:32:54;;;;;;;0.50;0.50;;;;;;;25.92;76.23;152558.97;5086165;28;20196;-59
2022/07/18 09:35:24;;;;;;;1.38;0.68;;;;;;;26.12;72.34;152608.78;5094374;28;20200;-59
2022/07/18 09:38:01;;;;;;;0.70;0.70;;;;;;;26.52;70.27;152711.09;5095899;28;20613;-60
2022/07/18 09:40:30;;;;;;;2.47;0.63;;;;;;;26.98;66.31;152827.56;5095671;28;20192;-59
2022/07/18 09:42:59;;;;;;;1.30;0.60;;;;;;;26.20;67.34;152630.56;5095470;28;20207;-60
2022/07/18 09:45:29;;;;;;;1.67;0.60;;;;;;;25.98;70.30;152572.97;5095922;28;20264;-59
2022/07/18 09:47:58;;;;;;;3.58;0.60;;;;;;;26.75;69.63;152769.94;5095766;28;20188;-61
2022/07/18 09:50:31;;;;;;;0.80;0.80;;;;;;;26.78;64.85;152776.31;5095213;28;20634;-59
2022/07/18 09:53:19;;;;;;;0.73;0.73;;;;;;;26.51;69.02;152707.28;5092418;28;20606;-61
2022/07/18 09:55:48;;;;;;;2.85;1.05;;;;;;;26.23;73.59;152638.22;5074942;28;20250;-59
2022/07/18 09:58:18;;;;;;;1.58;0.95;;;;;;;26.43;63.89;152686.84;5082749;28;20328;-60
2022/07/18 10:00:45;;;;;;;0.70;0.70;;;;;;;27.11;60.60;152859.53;5093099;28;20299;-59
2022/07/18 10:03:12;;;;;;;2.42;0.80;;;;;;;27.66;59.04;153000.34;5094882;28;20257;-60
2022/07/18 10:05:42;;;;;;;3.15;1.05;;;;;;;27.84;58.08;153043.84;5096269;28;20530;-59
2022/07/18 10:08:10;;;;;;;4.78;0.90;;;;;;;28.06;57.96;153100.13;5095528;28;20269;-59
2022/07/18 10:10:38;;;;;;;1.05;0.60;;;;;;;28.17;57.01;153127.06;5095192;28;20226;-60
2022/07/18 10:13:07;;;;;;;1.40;0.70;;;;;;;28.01;58.36;153087.31;5093802;28;20180;-60
2022/07/18 10:15:36;;;;;;;1.27;0.85;;;;;;;27.63;59.82;152992.63;5095065;28;20215;-60
2022/07/18 10:18:04;;;;;;;0.70;0.70;;;;;;;27.99;60.40;153083.50;5092284;28;20203;-60
2022/07/18 10:20:34;;;;;;;0.70;0.70;;;;;;;27.51;57.81;152961.91;5074966;28;20734;-60
2022/07/18 10:23:09;;;;;;;0.65;0.65;;;;;;;27.71;62.83;153011.81;5074329;28;20220;-61
2022/07/18 10:25:37;;;;;;;0.90;0.77;;;;;;;27.99;62.73;153082.22;5074436;28;20199;-60
2022/07/18 10:28:07;;;;;;;1.50;0.75;;;;;;;28.36;61.21;153176.97;5074757;28;20195;-60
2022/07/18 10:30:37;;;;;;;0.93;0.68;;;;;;;27.70;61.17;153009.28;5091107;28;20638;-60
2022/07/18 10:33:05;;;;;;;3.85;1.45;;;;;;;27.40;63.81;152933.75;5095622;28;20661;-60
2022/07/18 10:36:01;;;;;;;1.08;0.90;;;;;;;27.05;67.25;152844.19;5092574;28;20576;-60
2022/07/18 10:38:29;;;;;;;3.42;0.95;;;;;;;26.98;71.54;152827.56;5094353;28;20188;-60
2022/07/18 10:41:05;;;;;;;5.07;0.80;;;;;;;27.26;67.07;152897.91;5094386;28;20263;-60
2022/07/18 10:43:43;;;;;;;1.00;1.00;;;;;;;27.21;67.26;152885.09;5094174;28;20243;-60
2022/07/18 10:46:12;;;;;;;1.33;1.17;;;;;;;27.84;63.53;153043.84;5084422;28;20219;-60
2022/07/18 10:48:56;;;;;;;7.68;0.88;;;;;;;27.30;66.47;152908.13;5093924;28;20199;-61
2022/07/18 10:51:31;;;;;;;4.25;0.88;;;;;;;27.95;63.66;153073.28;5094233;28;20180;-61
2022/07/18 10:54:08;;;;;;;0.90;0.90;;;;;;;27.05;69.30;152845.47;5094236;28;20361;-60
2022/07/18 10:57:10;;;;;;;1.42;0.93;;;;;;;26.69;71.21;152754.59;5091997;28;20208;-60
2022/07/18 11:00:07;;;;;;;11.63;2.95;;;;;;;26.43;74.31;152688.13;5074195;28;20184;-60
2022/07/18 11:02:36;;;;;;;4.70;1.20;;;;;;;26.41;74.42;152683.00;5093577;28;20203;-62
2022/07/18 11:05:24;;;;;;;1.40;0.70;;;;;;;26.45;75.47;152693.22;5094465;28;20657;-60
2022/07/18 11:08:25;;;;;;;1.50;1.40;;;;;;;26.63;72.02;152739.25;5093501;28;20223;-56
2022/07/18 11:11:15;;;;;;;3.10;0.82;;;;;;;26.39;71.37;152677.91;5094075;28;20662;-59
2022/07/18 11:13:49;;;;;;;1.08;0.80;;;;;;;26.51;72.03;152708.59;5093740;28;20267;-60
2022/07/18 11:16:18;;;;;;;1.83;0.95;;;;;;;26.71;71.38;152758.44;5086665;28;20729;-59
2022/07/18 11:19:24;;;;;;;0.70;0.70;;;;;;;27.08;69.60;152851.84;5093602;28;20210;-59
2022/07/18 11:21:59;;;;;;;1.55;0.80;;;;;;;27.20;70.58;152882.56;5091616;28;20320;-59
2022/07/18 11:24:28;;;;;;;1.75;1.00;;;;;;;26.91;70.66;152808.34;5093260;28;20214;-61
2022/07/18 11:26:59;;;;;;;1.23;0.88;;;;;;;26.23;71.36;152636.94;5094333;28;20261;-62
2022/07/18 11:29:26;;;;;;;1.67;0.90;;;;;;;26.19;73.12;152626.69;5092816;28;20190;-60
2022/07/18 11:31:54;;;;;;;3.90;1.10;;;;;;;26.19;78.02;152626.69;5093343;28;20271;-59
2022/07/18 11:34:24;;;;;;;4.32;0.80;;;;;;;26.17;77.92;152622.88;5093290;28;20180;-60